createdAt,value
2018-03-19T00:00:43.681Z,-0.80
2018-03-19T00:01:47.687Z,-0.80
2018-03-19T00:02:51.781Z,-0.90
2018-03-19T00:03:54.970Z,-1.00
2018-03-19T00:04:58.974Z,-1.00
2018-03-19T00:06:02.276Z,-1.00
2018-03-19T00:07:05.571Z,-1.00
2018-03-19T00:08:08.820Z,-1.10
2018-03-19T00:09:12.050Z,-1.00
2018-03-19T00:10:15.278Z,-1.00
2018-03-19T00:11:19.287Z,-0.90
2018-03-19T00:12:23.337Z,-0.70
2018-03-19T00:13:26.564Z,-0.80
2018-03-19T00:14:30.582Z,-0.80
2018-03-19T00:15:33.801Z,-0.80
2018-03-19T00:16:37.304Z,-0.80
2018-03-19T00:17:40.563Z,-0.80
2018-03-19T00:18:43.791Z,-0.90
2018-03-19T00:19:47.063Z,-0.80
2018-03-19T00:20:50.298Z,-0.80
2018-03-19T00:21:53.525Z,-0.80
2018-03-19T00:22:56.756Z,-0.80
2018-03-19T00:24:00.010Z,-0.90
2018-03-19T00:25:03.228Z,-0.90
2018-03-19T00:26:06.467Z,-0.90
2018-03-19T00:27:09.704Z,-0.90
2018-03-19T00:28:12.944Z,-0.90
2018-03-19T00:29:16.183Z,-0.90
2018-03-19T00:30:19.414Z,-0.90
2018-03-19T00:31:22.827Z,-0.90
2018-03-19T00:32:26.074Z,-0.80
2018-03-19T00:33:29.310Z,-0.80
2018-03-19T00:34:32.547Z,-0.80
2018-03-19T00:35:36.546Z,-0.80
2018-03-19T00:36:39.774Z,-0.80
2018-03-19T00:37:43.036Z,-0.80
2018-03-19T00:38:46.239Z,-0.80
2018-03-19T00:39:49.460Z,-0.80
2018-03-19T00:40:52.710Z,-0.90
2018-03-19T00:41:55.957Z,-0.90
2018-03-19T00:42:59.943Z,-1.00
2018-03-19T00:44:03.175Z,-1.00
2018-03-19T00:45:06.435Z,-1.00
2018-03-19T00:46:09.995Z,-0.90
2018-03-19T00:47:13.230Z,-0.80
2018-03-19T00:48:16.462Z,-0.80
2018-03-19T00:49:19.689Z,-0.90
2018-03-19T00:50:22.934Z,-0.80
2018-03-19T00:51:26.179Z,-0.90
2018-03-19T00:52:29.434Z,-0.80
2018-03-19T00:53:32.660Z,-0.90
2018-03-19T00:54:35.876Z,-0.90
2018-03-19T00:55:39.154Z,-0.90
2018-03-19T00:56:43.159Z,-0.80
2018-03-19T00:57:46.393Z,-0.80
2018-03-19T00:58:49.631Z,-0.80
2018-03-19T00:59:52.890Z,-0.90
2018-03-19T01:00:56.113Z,-0.90
2018-03-19T01:01:59.337Z,-0.90
2018-03-19T01:03:02.584Z,-0.90
2018-03-19T01:04:05.870Z,-0.90
2018-03-19T01:05:09.101Z,-0.90
2018-03-19T01:06:12.327Z,-1.00
2018-03-19T01:07:15.563Z,-1.00
2018-03-19T01:08:18.813Z,-1.00
2018-03-19T01:09:22.076Z,-1.00
2018-03-19T01:10:25.412Z,-0.90
2018-03-19T01:11:28.623Z,-0.90
2018-03-19T01:12:32.633Z,-0.80
2018-03-19T01:13:35.876Z,-0.80
2018-03-19T01:14:39.112Z,-0.80
2018-03-19T01:15:42.396Z,-0.80
2018-03-19T01:16:45.629Z,-0.90
2018-03-19T01:17:48.890Z,-0.80
2018-03-19T01:18:52.117Z,-0.80
2018-03-19T01:19:56.155Z,-0.80
2018-03-19T01:20:59.369Z,-0.80
2018-03-19T01:22:02.602Z,-0.80
2018-03-19T01:23:05.834Z,-0.90
2018-03-19T01:24:09.077Z,-0.90
2018-03-19T01:25:12.317Z,-0.80
2018-03-19T01:26:15.547Z,-0.80
2018-03-19T01:27:19.634Z,-1.00
2018-03-19T01:28:23.028Z,-1.00
2018-03-19T01:29:26.253Z,-1.00
2018-03-19T01:30:29.728Z,-1.00
2018-03-19T01:31:33.010Z,-0.90
2018-03-19T01:32:37.037Z,-0.90
2018-03-19T01:33:40.297Z,-0.90
2018-03-19T01:34:43.558Z,-0.90
2018-03-19T01:35:46.837Z,-0.90
2018-03-19T01:36:50.886Z,-0.90
2018-03-19T01:37:54.616Z,-1.00
2018-03-19T01:38:59.040Z,-1.00
2018-03-19T01:40:03.086Z,-1.00
2018-03-19T01:41:06.831Z,-1.00
2018-03-19T01:42:10.060Z,-1.00
2018-03-19T01:43:13.632Z,-1.00
2018-03-19T01:44:17.626Z,-1.00
2018-03-19T01:45:22.108Z,-1.00
2018-03-19T01:46:25.596Z,-1.00
2018-03-19T01:47:29.619Z,-1.00
2018-03-19T01:48:34.153Z,-1.00
2018-03-19T01:49:37.436Z,-1.00
2018-03-19T01:50:41.406Z,-1.00
2018-03-19T01:51:44.726Z,-1.00
2018-03-19T01:52:49.507Z,-1.00
2018-03-19T01:53:52.702Z,-1.10
2018-03-19T01:54:56.079Z,-1.20
2018-03-19T01:55:59.352Z,-1.20
2018-03-19T01:57:02.539Z,-1.10
2018-03-19T01:58:05.773Z,-1.00
2018-03-19T01:59:09.014Z,-1.10
2018-03-19T02:00:12.234Z,-1.20
2018-03-19T02:01:15.464Z,-1.20
2018-03-19T02:02:18.689Z,-1.20
2018-03-19T02:03:22.688Z,-1.20
2018-03-19T02:04:26.694Z,-1.10
2018-03-19T02:05:29.921Z,-1.10
2018-03-19T02:06:33.167Z,-1.10
2018-03-19T02:07:36.396Z,-1.10
2018-03-19T02:08:39.632Z,-1.00
2018-03-19T02:09:42.865Z,-1.10
2018-03-19T02:10:46.096Z,-1.10
2018-03-19T02:11:49.334Z,-1.10
2018-03-19T02:12:52.554Z,-1.10
2018-03-19T02:13:55.778Z,-1.00
2018-03-19T02:14:59.008Z,-1.00
2018-03-19T02:16:02.996Z,-0.90
2018-03-19T02:17:06.218Z,-1.00
2018-03-19T02:18:09.441Z,-1.00
2018-03-19T02:19:12.673Z,-0.90
2018-03-19T02:20:15.930Z,-1.00
2018-03-19T02:21:19.930Z,-1.10
2018-03-19T02:22:23.141Z,-1.10
2018-03-19T02:23:26.394Z,-1.10
2018-03-19T02:24:30.390Z,-1.10
2018-03-19T02:25:35.155Z,-1.10
2018-03-19T02:26:38.389Z,-1.10
2018-03-19T02:27:41.608Z,-1.10
2018-03-19T02:28:44.849Z,-1.10
2018-03-19T02:29:48.085Z,-1.20
2018-03-19T02:30:51.312Z,-1.30
2018-03-19T02:31:56.052Z,-1.20
2018-03-19T02:32:59.272Z,-1.30
2018-03-19T02:34:02.512Z,-1.20
2018-03-19T02:35:05.713Z,-1.20
2018-03-19T02:36:08.966Z,-1.20
2018-03-19T02:37:12.206Z,-1.20
2018-03-19T02:38:15.428Z,-1.20
2018-03-19T02:39:18.665Z,-1.20
2018-03-19T02:40:22.076Z,-1.30
2018-03-19T02:41:25.308Z,-1.30
2018-03-19T02:42:29.300Z,-1.30
2018-03-19T02:43:33.319Z,-1.30
2018-03-19T02:44:37.313Z,-1.30
2018-03-19T02:45:40.562Z,-1.30
2018-03-19T02:46:44.581Z,-1.20
2018-03-19T02:47:47.816Z,-1.20
2018-03-19T02:48:51.045Z,-1.20
2018-03-19T02:49:54.278Z,-1.20
2018-03-19T02:50:57.496Z,-1.30
2018-03-19T02:52:00.784Z,-1.30
2018-03-19T02:53:03.955Z,-1.30
2018-03-19T02:54:07.191Z,-1.30
2018-03-19T02:55:10.415Z,-1.20
2018-03-19T02:56:13.632Z,-1.20
2018-03-19T02:57:17.654Z,-1.30
2018-03-19T02:58:20.938Z,-1.30
2018-03-19T02:59:24.157Z,-1.40
2018-03-19T03:00:27.384Z,-1.30
2018-03-19T03:01:31.389Z,-1.30
2018-03-19T03:02:35.389Z,-1.20
2018-03-19T03:03:39.368Z,-1.20
2018-03-19T03:04:42.615Z,-1.20
2018-03-19T03:05:45.842Z,-1.10
2018-03-19T03:06:49.073Z,-1.10
2018-03-19T03:07:52.354Z,-1.20
2018-03-19T03:08:55.582Z,-1.10
2018-03-19T03:09:58.818Z,-1.10
2018-03-19T03:11:02.041Z,-1.20
2018-03-19T03:12:05.287Z,-1.20
2018-03-19T03:13:08.520Z,-1.20
2018-03-19T03:14:11.762Z,-1.20
2018-03-19T03:15:14.991Z,-1.20
2018-03-19T03:16:18.227Z,-1.10
2018-03-19T03:17:21.705Z,-1.10
2018-03-19T03:18:24.923Z,-1.00
2018-03-19T03:19:28.170Z,-0.90
2018-03-19T03:20:31.421Z,-0.90
2018-03-19T03:21:34.664Z,-1.10
2018-03-19T03:22:37.864Z,-1.10
2018-03-19T03:23:41.190Z,-1.10
2018-03-19T03:24:45.156Z,-1.20
2018-03-19T03:25:48.386Z,-1.20
2018-03-19T03:26:51.606Z,-1.20
2018-03-19T03:27:54.965Z,-1.20
2018-03-19T03:28:58.177Z,-1.10
2018-03-19T03:30:01.431Z,-1.10
2018-03-19T03:31:04.671Z,-1.20
2018-03-19T03:32:08.657Z,-1.20
2018-03-19T03:33:12.661Z,-1.20
2018-03-19T03:34:15.929Z,-1.30
2018-03-19T03:35:19.220Z,-1.20
2018-03-19T03:36:22.449Z,-1.20
2018-03-19T03:37:25.679Z,-1.30
2018-03-19T03:38:28.896Z,-1.30
2018-03-19T03:39:32.194Z,-1.30
2018-03-19T03:40:35.419Z,-1.20
2018-03-19T03:41:38.648Z,-1.20
2018-03-19T03:42:41.912Z,-1.20
2018-03-19T03:43:45.130Z,-1.20
2018-03-19T03:44:48.368Z,-1.20
2018-03-19T03:45:51.632Z,-1.20
2018-03-19T03:46:54.845Z,-1.10
2018-03-19T03:47:58.841Z,-1.00
2018-03-19T03:49:02.869Z,-1.00
2018-03-19T03:50:06.100Z,-1.10
2018-03-19T03:51:09.336Z,-1.00
2018-03-19T03:52:12.573Z,-1.10
2018-03-19T03:53:15.802Z,-1.00
2018-03-19T03:54:19.068Z,-1.00
2018-03-19T03:55:23.052Z,-1.00
2018-03-19T03:56:26.327Z,-1.00
2018-03-19T03:57:30.338Z,-1.10
2018-03-19T03:58:33.559Z,-1.10
2018-03-19T03:59:36.815Z,-1.10
2018-03-19T04:00:40.815Z,-1.30
2018-03-19T04:01:44.841Z,-1.30
2018-03-19T04:02:48.144Z,-1.30
2018-03-19T04:03:51.364Z,-1.40
2018-03-19T04:04:54.603Z,-1.40
2018-03-19T04:05:58.046Z,-1.30
2018-03-19T04:07:01.263Z,-1.40
2018-03-19T04:08:04.501Z,-1.30
2018-03-19T04:09:07.780Z,-1.40
2018-03-19T04:10:11.014Z,-1.50
2018-03-19T04:11:14.245Z,-1.50
2018-03-19T04:12:17.496Z,-1.40
2018-03-19T04:13:20.721Z,-1.40
2018-03-19T04:14:24.755Z,-1.30
2018-03-19T04:15:28.792Z,-1.30
2018-03-19T04:16:32.005Z,-1.30
2018-03-19T04:17:35.228Z,-1.30
2018-03-19T04:18:38.466Z,-1.20
2018-03-19T04:19:41.695Z,-1.30
2018-03-19T04:20:44.972Z,-1.20
2018-03-19T04:21:48.251Z,-1.30
2018-03-19T04:22:51.486Z,-1.30
2018-03-19T04:23:54.726Z,-1.20
2018-03-19T04:24:57.957Z,-1.30
2018-03-19T04:26:01.192Z,-1.30
2018-03-19T04:27:04.418Z,-1.30
2018-03-19T04:28:07.673Z,-1.20
2018-03-19T04:29:10.881Z,-1.10
2018-03-19T04:30:14.112Z,-1.20
2018-03-19T04:31:17.395Z,-1.30
2018-03-19T04:32:20.632Z,-1.30
2018-03-19T04:33:23.856Z,-1.30
2018-03-19T04:34:27.855Z,-1.40
2018-03-19T04:35:31.901Z,-1.40
2018-03-19T04:36:35.110Z,-1.40
2018-03-19T04:37:38.424Z,-1.30
2018-03-19T04:38:42.420Z,-1.40
2018-03-19T04:39:46.437Z,-1.40
2018-03-19T04:40:49.678Z,-1.40
2018-03-19T04:41:52.920Z,-1.30
2018-03-19T04:42:57.169Z,-1.20
2018-03-19T04:44:00.419Z,-1.20
2018-03-19T04:45:03.666Z,-1.30
2018-03-19T04:46:07.701Z,-1.30
2018-03-19T04:47:10.916Z,-1.40
2018-03-19T04:48:14.183Z,-1.30
2018-03-19T04:49:17.422Z,-1.30
2018-03-19T04:50:20.656Z,-1.30
2018-03-19T04:51:23.899Z,-1.20
2018-03-19T04:52:27.143Z,-1.30
2018-03-19T04:53:30.356Z,-1.30
2018-03-19T04:54:33.620Z,-1.40
2018-03-19T04:55:37.636Z,-1.40
2018-03-19T04:56:41.617Z,-1.40
2018-03-19T04:57:44.846Z,-1.40
2018-03-19T04:58:48.080Z,-1.40
2018-03-19T04:59:51.297Z,-1.40
2018-03-19T05:00:54.527Z,-1.40
2018-03-19T05:01:57.764Z,-1.40
2018-03-19T05:03:01.765Z,-1.40
2018-03-19T05:04:04.991Z,-1.40
2018-03-19T05:05:08.229Z,-1.40
2018-03-19T05:06:11.452Z,-1.30
2018-03-19T05:07:14.679Z,-1.30
2018-03-19T05:08:17.916Z,-1.30
2018-03-19T05:09:21.265Z,-1.30
2018-03-19T05:10:24.582Z,-1.40
2018-03-19T05:11:27.799Z,-1.40
2018-03-19T05:12:31.801Z,-1.30
2018-03-19T05:13:35.807Z,-1.30
2018-03-19T05:14:39.858Z,-1.30
2018-03-19T05:15:43.114Z,-1.30
2018-03-19T05:16:47.097Z,-1.20
2018-03-19T05:17:51.087Z,-1.20
2018-03-19T05:18:55.072Z,-1.30
2018-03-19T05:19:58.292Z,-1.30
2018-03-19T05:21:01.517Z,-1.30
2018-03-19T05:22:04.741Z,-1.30
2018-03-19T05:23:08.741Z,-1.20
2018-03-19T05:24:12.734Z,-1.30
2018-03-19T05:25:16.737Z,-1.30
2018-03-19T05:26:20.761Z,-1.20
2018-03-19T05:27:23.988Z,-1.30
2018-03-19T05:28:27.213Z,-1.30
2018-03-19T05:29:31.209Z,-1.30
2018-03-19T05:30:35.201Z,-1.30
2018-03-19T05:31:38.438Z,-1.30
2018-03-19T05:32:41.670Z,-1.30
2018-03-19T05:33:45.679Z,-1.10
2018-03-19T05:34:49.673Z,-1.20
2018-03-19T05:35:53.680Z,-1.20
2018-03-19T05:36:57.656Z,-1.30
2018-03-19T05:38:00.895Z,-1.30
2018-03-19T05:39:04.175Z,-1.30
2018-03-19T05:40:07.420Z,-1.30
2018-03-19T05:41:11.525Z,-1.30
2018-03-19T05:42:15.521Z,-1.30
2018-03-19T05:43:19.529Z,-1.20
2018-03-19T05:44:23.562Z,-1.10
2018-03-19T05:45:26.794Z,-1.10
2018-03-19T05:46:30.130Z,-1.00
2018-03-19T05:47:33.356Z,-1.10
2018-03-19T05:48:36.590Z,-1.20
2018-03-19T05:49:39.840Z,-1.30
2018-03-19T05:50:43.892Z,-1.30
2018-03-19T05:51:47.108Z,-1.30
2018-03-19T05:52:50.344Z,-1.30
2018-03-19T05:53:53.604Z,-1.20
2018-03-19T05:54:57.741Z,-1.20
2018-03-19T05:56:00.976Z,-1.20
2018-03-19T05:57:04.985Z,-1.20
2018-03-19T05:58:09.029Z,-1.30
2018-03-19T05:59:12.279Z,-1.30
2018-03-19T06:00:15.546Z,-1.30
2018-03-19T06:01:18.800Z,-1.30
2018-03-19T06:02:22.045Z,-1.30
2018-03-19T06:03:27.285Z,-1.30
2018-03-19T06:04:30.524Z,-1.40
2018-03-19T06:05:33.739Z,-1.40
2018-03-19T06:06:36.981Z,-1.50
2018-03-19T06:07:40.204Z,-1.40
2018-03-19T06:08:44.357Z,-1.40
2018-03-19T06:09:47.560Z,-1.40
2018-03-19T06:10:50.815Z,-1.40
2018-03-19T06:11:54.009Z,-1.40
2018-03-19T06:12:57.254Z,-1.40
2018-03-19T06:14:00.481Z,-1.50
2018-03-19T06:15:03.727Z,-1.40
2018-03-19T06:16:06.966Z,-1.40
2018-03-19T06:17:10.959Z,-1.40
2018-03-19T06:18:14.182Z,-1.40
2018-03-19T06:19:17.405Z,-1.50
2018-03-19T06:20:20.686Z,-1.40
2018-03-19T06:21:23.922Z,-1.40
2018-03-19T06:22:27.227Z,-1.50
2018-03-19T06:23:30.592Z,-1.50
2018-03-19T06:24:34.674Z,-1.40
2018-03-19T06:25:38.704Z,-1.30
2018-03-19T06:26:41.940Z,-1.30
2018-03-19T06:28:54.793Z,-1.40
2018-03-19T06:29:58.026Z,-1.30
2018-03-19T06:31:01.307Z,-1.40
2018-03-19T06:32:07.449Z,-1.30
2018-03-19T06:33:10.655Z,-1.30
2018-03-19T06:34:13.880Z,-1.30
2018-03-19T06:35:17.112Z,-1.30
2018-03-19T06:36:20.338Z,-1.20
2018-03-19T06:37:23.581Z,-1.30
2018-03-19T06:38:26.812Z,-1.20
2018-03-19T06:39:30.042Z,-1.20
2018-03-19T06:40:33.275Z,-1.20
2018-03-19T06:41:36.561Z,-1.30
2018-03-19T06:42:39.848Z,-1.30
2018-03-19T06:43:43.086Z,-1.30
2018-03-19T06:44:46.341Z,-1.40
2018-03-19T06:45:49.581Z,-1.40
2018-03-19T06:46:52.821Z,-1.50
2018-03-19T06:47:56.042Z,-1.50
2018-03-19T06:48:59.298Z,-1.50
2018-03-19T06:50:02.564Z,-1.60
2018-03-19T06:51:05.819Z,-1.50
2018-03-19T06:52:09.041Z,-1.50
2018-03-19T06:53:12.304Z,-1.50
2018-03-19T06:54:16.560Z,-1.40
2018-03-19T06:55:19.858Z,-1.40
2018-03-19T06:56:23.077Z,-1.40
2018-03-19T06:57:26.311Z,-1.40
2018-03-19T06:58:30.313Z,-1.40
2018-03-19T06:59:34.316Z,-1.40
2018-03-19T07:00:38.305Z,-1.40
2018-03-19T07:01:42.575Z,-1.30
2018-03-19T07:02:45.780Z,-1.30
2018-03-19T07:03:49.799Z,-1.40
2018-03-19T07:04:53.804Z,-1.30
2018-03-19T07:05:57.859Z,-1.30
2018-03-19T07:07:01.124Z,-1.30
2018-03-19T07:08:04.375Z,-1.30
2018-03-19T07:09:07.617Z,-1.30
2018-03-19T07:10:10.848Z,-1.40
2018-03-19T07:11:14.110Z,-1.30
2018-03-19T07:12:17.417Z,-1.30
2018-03-19T07:13:20.657Z,-1.30
2018-03-19T07:14:23.937Z,-1.30
2018-03-19T07:15:27.143Z,-1.30
2018-03-19T07:16:31.144Z,-1.40
2018-03-19T07:17:35.152Z,-1.40
2018-03-19T07:18:39.167Z,-1.30
2018-03-19T07:19:42.409Z,-1.30
2018-03-19T07:20:45.632Z,-1.20
2018-03-19T07:21:48.873Z,-1.30
2018-03-19T07:22:52.110Z,-1.30
2018-03-19T07:23:55.352Z,-1.30
2018-03-19T07:24:58.721Z,-1.30
2018-03-19T07:26:01.955Z,-1.20
2018-03-19T07:27:05.164Z,-1.30
2018-03-19T07:28:08.466Z,-1.30
2018-03-19T07:29:11.661Z,-1.20
2018-03-19T07:30:14.926Z,-1.20
2018-03-19T07:31:18.172Z,-1.20
2018-03-19T07:32:21.410Z,-1.30
2018-03-19T07:33:25.431Z,-1.40
2018-03-19T07:34:29.434Z,-1.40
2018-03-19T07:35:33.435Z,-1.30
2018-03-19T07:36:37.424Z,-1.30
2018-03-19T07:37:40.653Z,-1.30
2018-03-19T07:38:43.922Z,-1.30
2018-03-19T07:39:47.145Z,-1.20
2018-03-19T07:40:50.403Z,-1.30
2018-03-19T07:41:53.733Z,-1.30
2018-03-19T07:42:57.083Z,-1.40
2018-03-19T07:44:00.373Z,-1.40
2018-03-19T07:45:04.341Z,-1.40
2018-03-19T07:46:07.586Z,-1.40
2018-03-19T07:47:10.835Z,-1.40
2018-03-19T07:48:14.051Z,-1.30
2018-03-19T07:49:17.313Z,-1.30
2018-03-19T07:50:20.561Z,-1.30
2018-03-19T07:51:23.802Z,-1.30
2018-03-19T07:52:27.044Z,-1.30
2018-03-19T07:53:30.269Z,-1.20
2018-03-19T07:54:33.508Z,-1.20
2018-03-19T07:55:36.733Z,-1.20
2018-03-19T07:56:39.974Z,-1.30
2018-03-19T07:57:43.208Z,-1.30
2018-03-19T07:58:47.220Z,-1.00
2018-03-19T07:59:51.262Z,-1.10
2018-03-19T08:00:54.489Z,-1.10
2018-03-19T08:01:57.802Z,-1.00
2018-03-19T08:03:01.857Z,-1.10
2018-03-19T08:04:05.156Z,-1.10
2018-03-19T08:05:08.413Z,-1.20
2018-03-19T08:06:11.784Z,-1.30
2018-03-19T08:07:15.012Z,-1.20
2018-03-19T08:08:18.273Z,-1.20
2018-03-19T08:09:21.504Z,-1.20
2018-03-19T08:10:24.777Z,-1.10
2018-03-19T08:11:28.030Z,-1.20
2018-03-19T08:12:31.242Z,-1.20
2018-03-19T08:13:35.265Z,-1.20
2018-03-19T08:14:38.500Z,-1.20
2018-03-19T08:15:41.773Z,-1.20
2018-03-19T08:16:44.985Z,-1.20
2018-03-19T08:17:49.033Z,-1.40
2018-03-19T08:18:52.314Z,-1.40
2018-03-19T08:19:55.529Z,-1.40
2018-03-19T08:20:58.771Z,-1.30
2018-03-19T08:22:02.072Z,-1.20
2018-03-19T08:23:05.290Z,-1.20
2018-03-19T08:24:08.622Z,-1.20
2018-03-19T08:25:11.860Z,-1.10
2018-03-19T08:26:15.092Z,-1.20
2018-03-19T08:27:18.378Z,-1.20
2018-03-19T08:28:21.624Z,-1.20
2018-03-19T08:29:25.693Z,-1.10
2018-03-19T08:30:28.931Z,-1.10
2018-03-19T08:31:32.927Z,-0.90
2018-03-19T08:32:36.201Z,-1.00
2018-03-19T08:33:40.194Z,-1.00
2018-03-19T08:34:44.194Z,-1.10
2018-03-19T08:35:48.196Z,-1.10
2018-03-19T08:36:52.193Z,-1.20
2018-03-19T08:37:56.226Z,-1.10
2018-03-19T08:39:00.354Z,-1.20
2018-03-19T08:40:03.646Z,-1.10
2018-03-19T08:41:06.909Z,-1.00
2018-03-19T08:42:10.126Z,-1.00
2018-03-19T08:43:13.463Z,-0.90
2018-03-19T08:44:16.698Z,-0.90
2018-03-19T08:45:20.021Z,-0.80
2018-03-19T08:47:33.525Z,-0.90
2018-03-19T08:48:37.549Z,-0.80
2018-03-19T08:49:41.534Z,-0.80
2018-03-19T08:50:45.578Z,-0.80
2018-03-19T08:51:48.821Z,-0.80
2018-03-19T08:52:52.861Z,-0.80
2018-03-19T08:53:56.069Z,-0.90
2018-03-19T08:54:59.300Z,-0.90
2018-03-19T08:56:03.291Z,-1.00
2018-03-19T08:57:07.304Z,-1.00
2018-03-19T08:58:11.296Z,-1.00
2018-03-19T08:59:15.461Z,-0.90
2018-03-19T09:00:18.670Z,-0.90
2018-03-19T09:01:22.048Z,-0.80
2018-03-19T09:02:25.178Z,-0.80
2018-03-19T09:03:28.410Z,-0.70
2018-03-19T09:04:31.662Z,-0.60
2018-03-19T09:05:34.909Z,-0.70
2018-03-19T09:06:38.132Z,-0.80
2018-03-19T09:07:41.382Z,-0.90
2018-03-19T09:08:44.622Z,-0.70
2018-03-19T09:09:47.874Z,-0.70
2018-03-19T09:10:51.117Z,-0.60
2018-03-19T09:11:54.367Z,-0.60
2018-03-19T09:12:57.592Z,-0.70
2018-03-19T09:14:00.882Z,-0.70
2018-03-19T09:15:04.846Z,-0.70
2018-03-19T09:16:08.113Z,-0.70
2018-03-19T09:17:11.352Z,-0.70
2018-03-19T09:18:14.626Z,-0.80
2018-03-19T09:19:18.645Z,-0.50
2018-03-19T09:20:21.859Z,-0.50
2018-03-19T09:21:25.096Z,-0.30
2018-03-19T09:22:28.350Z,-0.10
2018-03-19T09:23:31.639Z,0.10
2018-03-19T09:24:35.644Z,0.40
2018-03-19T09:25:39.642Z,0.40
2018-03-19T09:26:42.982Z,0.40
2018-03-19T09:27:46.289Z,0.20
2018-03-19T09:28:49.516Z,0.10
2018-03-19T09:29:52.746Z,-0.10
2018-03-19T09:30:55.977Z,-0.10
2018-03-19T09:32:00.023Z,-0.10
2018-03-19T09:33:03.288Z,-0.10
2018-03-19T09:34:06.522Z,-0.10
2018-03-19T09:35:11.315Z,0.00
2018-03-19T09:36:15.238Z,-0.10
2018-03-19T09:37:19.273Z,-0.20
2018-03-19T09:38:22.500Z,-0.20
2018-03-19T09:39:25.788Z,-0.30
2018-03-19T09:40:29.064Z,-0.30
2018-03-19T09:41:32.332Z,-0.40
2018-03-19T09:42:36.310Z,-0.50
2018-03-19T09:43:39.545Z,-0.50
2018-03-19T09:44:42.790Z,-0.40
2018-03-19T09:45:46.029Z,-0.40
2018-03-19T09:46:50.018Z,-0.50
2018-03-19T09:47:53.283Z,-0.50
2018-03-19T09:48:56.499Z,-0.50
2018-03-19T09:50:00.529Z,-0.40
2018-03-19T09:51:03.734Z,-0.40
2018-03-19T09:52:06.955Z,-0.40
2018-03-19T09:53:10.172Z,-0.40
2018-03-19T09:54:13.392Z,-0.40
2018-03-19T09:55:16.626Z,-0.40
2018-03-19T09:56:19.951Z,-0.40
2018-03-19T09:57:23.266Z,-0.40
2018-03-19T09:58:26.534Z,-0.50
2018-03-19T09:59:31.280Z,-0.50
2018-03-19T10:00:34.500Z,-0.50
2018-03-19T10:01:37.802Z,-0.50
2018-03-19T10:02:41.023Z,-0.40
2018-03-19T10:03:45.017Z,-0.40
2018-03-19T10:04:48.253Z,-0.50
2018-03-19T10:05:51.566Z,-0.50
2018-03-19T10:06:54.769Z,-0.60
2018-03-19T10:07:57.989Z,-0.60
2018-03-19T10:09:01.226Z,-0.70
2018-03-19T10:10:04.556Z,-0.60
2018-03-19T10:11:07.808Z,-0.50
2018-03-19T10:12:11.025Z,-0.50
2018-03-19T10:13:14.254Z,-0.50
2018-03-19T10:14:17.500Z,-0.40
2018-03-19T10:15:20.769Z,-0.40
2018-03-19T10:16:24.974Z,-0.50
2018-03-19T10:17:28.246Z,-0.50
2018-03-19T10:18:31.550Z,-0.50
2018-03-19T10:19:34.845Z,-0.50
2018-03-19T10:20:38.092Z,-0.40
2018-03-19T10:21:42.216Z,-0.30
2018-03-19T10:22:46.169Z,-0.30
2018-03-19T10:23:49.401Z,-0.30
2018-03-19T10:24:52.632Z,-0.40
2018-03-19T10:25:55.881Z,-0.30
2018-03-19T10:26:59.245Z,-0.40
2018-03-19T10:28:02.477Z,-0.50
2018-03-19T10:29:05.717Z,-0.50
2018-03-19T10:30:09.128Z,-0.50
2018-03-19T10:31:12.325Z,-0.50
2018-03-19T10:32:15.553Z,-0.50
2018-03-19T10:33:19.545Z,-0.50
2018-03-19T10:34:23.566Z,-0.40
2018-03-19T10:35:26.829Z,-0.30
2018-03-19T10:36:30.859Z,-0.20
2018-03-19T10:37:34.086Z,-0.20
2018-03-19T10:38:37.396Z,-0.20
2018-03-19T10:39:40.600Z,-0.30
2018-03-19T10:40:44.006Z,-0.10
2018-03-19T10:41:47.288Z,-0.10
2018-03-19T10:42:50.516Z,0.00
2018-03-19T10:43:53.821Z,0.00
2018-03-19T10:44:57.045Z,0.00
2018-03-19T10:46:00.308Z,-0.10
2018-03-19T10:47:04.347Z,-0.10
2018-03-19T10:48:07.588Z,-0.10
2018-03-19T10:49:10.799Z,-0.20
2018-03-19T10:50:14.059Z,-0.10
2018-03-19T10:51:17.305Z,-0.10
2018-03-19T10:52:21.319Z,-0.20
2018-03-19T10:53:25.312Z,-0.30
2018-03-19T10:54:29.340Z,-0.30
2018-03-19T10:55:32.634Z,-0.20
2018-03-19T10:56:35.886Z,-0.20
2018-03-19T10:57:39.141Z,-0.30
2018-03-19T10:58:42.375Z,-0.30
2018-03-19T10:59:45.609Z,-0.30
2018-03-19T11:00:48.827Z,-0.30
2018-03-19T11:01:58.583Z,-0.20
2018-03-19T11:03:06.618Z,-0.20
2018-03-19T11:04:10.760Z,-0.10
2018-03-19T11:05:20.460Z,-0.20
2018-03-19T11:06:29.421Z,-0.20
2018-03-19T11:07:49.095Z,-0.20
2018-03-19T11:08:52.330Z,-0.20
2018-03-19T11:09:55.650Z,-0.20
2018-03-19T11:10:58.893Z,-0.30
2018-03-19T11:12:02.237Z,-0.20
2018-03-19T11:13:05.414Z,-0.20
2018-03-19T11:14:08.693Z,-0.20
2018-03-19T11:15:11.933Z,-0.20
2018-03-19T11:16:15.180Z,-0.30
2018-03-19T11:17:18.415Z,-0.20
2018-03-19T11:18:21.660Z,-0.20
2018-03-19T11:19:24.889Z,-0.30
2018-03-19T11:20:28.889Z,-0.40
2018-03-19T11:21:32.937Z,-0.30
2018-03-19T11:22:36.152Z,-0.30
2018-03-19T11:23:39.389Z,-0.30
2018-03-19T11:24:42.617Z,-0.40
2018-03-19T11:25:45.870Z,-0.40
2018-03-19T11:26:49.139Z,-0.40
2018-03-19T11:27:52.367Z,-0.40
2018-03-19T11:28:55.604Z,-0.40
2018-03-19T11:29:58.855Z,-0.40
2018-03-19T11:31:02.931Z,-0.30
2018-03-19T11:32:06.174Z,-0.30
2018-03-19T11:33:09.594Z,-0.30
2018-03-19T11:34:14.374Z,-0.30
2018-03-19T11:35:17.607Z,-0.30
2018-03-19T11:36:20.853Z,-0.20
2018-03-19T11:37:24.142Z,-0.20
2018-03-19T11:38:27.380Z,-0.30
2018-03-19T11:39:31.397Z,-0.10
2018-03-19T11:40:35.404Z,-0.10
2018-03-19T11:41:38.708Z,-0.10
2018-03-19T11:42:42.026Z,-0.20
2018-03-19T11:43:45.253Z,-0.10
2018-03-19T11:44:48.497Z,-0.10
2018-03-19T11:45:51.728Z,0.00
2018-03-19T11:46:54.948Z,0.00
2018-03-19T11:47:58.176Z,0.00
2018-03-19T11:49:01.488Z,-0.10
2018-03-19T11:50:04.746Z,-0.10
2018-03-19T11:51:08.005Z,-0.10
2018-03-19T11:52:12.009Z,-0.20
2018-03-19T11:53:16.000Z,-0.20
2018-03-19T11:54:19.276Z,-0.20
2018-03-19T11:55:22.580Z,-0.20
2018-03-19T11:56:25.782Z,-0.10
2018-03-19T11:57:29.050Z,-0.10
2018-03-19T11:58:32.271Z,-0.10
2018-03-19T11:59:35.508Z,-0.10
2018-03-19T12:00:38.763Z,-0.10
2018-03-19T12:01:42.004Z,-0.10
2018-03-19T12:02:45.644Z,0.00
2018-03-19T12:03:48.869Z,0.00
2018-03-19T12:04:52.876Z,0.00
2018-03-19T12:05:56.902Z,-0.10
2018-03-19T12:07:00.121Z,0.00
2018-03-19T12:08:03.382Z,-0.10
2018-03-19T12:09:06.617Z,-0.10
2018-03-19T12:10:10.587Z,0.00
2018-03-19T12:11:13.893Z,0.00
2018-03-19T12:12:17.896Z,0.10
2018-03-19T12:13:21.904Z,0.10
2018-03-19T12:14:25.966Z,0.00
2018-03-19T12:15:29.202Z,0.00
2018-03-19T12:16:32.421Z,0.00
2018-03-19T12:17:35.708Z,0.10
2018-03-19T12:18:38.934Z,0.20
2018-03-19T12:19:42.953Z,0.20
2018-03-19T12:20:46.213Z,0.20
2018-03-19T12:21:50.200Z,0.30
2018-03-19T12:22:53.425Z,0.30
2018-03-19T12:23:56.657Z,0.20
2018-03-19T12:24:59.940Z,0.20
2018-03-19T12:26:03.196Z,0.20
2018-03-19T12:27:06.426Z,0.20
2018-03-19T12:28:10.449Z,0.20
2018-03-19T12:29:14.457Z,0.10
2018-03-19T12:30:18.460Z,0.00
2018-03-19T12:31:21.708Z,0.00
2018-03-19T12:32:25.048Z,0.10
2018-03-19T12:33:28.296Z,0.10
2018-03-19T12:34:31.533Z,0.30
2018-03-19T12:35:34.754Z,0.20
2018-03-19T12:36:38.767Z,0.30
2018-03-19T12:37:42.048Z,0.30
2018-03-19T12:38:45.286Z,0.30
2018-03-19T12:39:48.497Z,0.20
2018-03-19T12:40:52.498Z,0.20
2018-03-19T12:41:56.500Z,0.10
2018-03-19T12:43:00.493Z,0.20
2018-03-19T12:44:03.765Z,0.10
2018-03-19T12:45:07.060Z,0.10
2018-03-19T12:46:10.230Z,0.30
2018-03-19T12:47:13.483Z,0.40
2018-03-19T12:48:16.716Z,0.40
2018-03-19T12:49:20.733Z,0.30
2018-03-19T12:50:24.760Z,0.30
2018-03-19T12:51:30.794Z,0.30
2018-03-19T12:52:34.016Z,0.20
2018-03-19T12:53:37.240Z,0.30
2018-03-19T12:54:41.283Z,0.30
2018-03-19T12:55:44.507Z,0.30
2018-03-19T12:56:47.717Z,0.20
2018-03-19T12:57:50.944Z,0.30
2018-03-19T12:58:54.197Z,0.20
2018-03-19T12:59:57.419Z,0.20
2018-03-19T13:01:00.661Z,0.30
2018-03-19T13:02:03.880Z,0.30
2018-03-19T13:03:07.098Z,0.40
2018-03-19T13:04:11.075Z,0.70
2018-03-19T13:05:14.297Z,0.70
2018-03-19T13:06:17.630Z,0.70
2018-03-19T13:07:20.854Z,0.80
2018-03-19T13:08:24.848Z,0.90
2018-03-19T13:09:28.867Z,0.90
2018-03-19T13:10:32.112Z,0.90
2018-03-19T13:11:36.130Z,1.00
2018-03-19T13:12:40.151Z,1.10
2018-03-19T13:13:43.390Z,1.10
2018-03-19T13:14:46.600Z,1.00
2018-03-19T13:15:50.572Z,1.10
2018-03-19T13:16:53.810Z,1.00
2018-03-19T13:17:57.043Z,1.00
2018-03-19T13:19:00.252Z,1.00
2018-03-19T13:20:03.480Z,1.00
2018-03-19T13:21:06.703Z,0.80
2018-03-19T13:22:10.729Z,0.70
2018-03-19T13:23:13.964Z,0.70
2018-03-19T13:24:17.205Z,0.70
2018-03-19T13:25:20.425Z,0.80
2018-03-19T13:26:24.550Z,0.90
2018-03-19T13:27:27.812Z,0.90
2018-03-19T13:28:31.062Z,1.00
2018-03-19T13:29:34.286Z,1.00
2018-03-19T13:30:37.520Z,1.00
2018-03-19T13:31:40.728Z,0.90
2018-03-19T13:32:43.949Z,0.80
2018-03-19T13:33:47.938Z,0.90
2018-03-19T13:34:51.162Z,0.90
2018-03-19T13:35:54.390Z,0.90
2018-03-19T13:36:57.622Z,0.90
2018-03-19T13:38:01.601Z,1.00
2018-03-19T13:39:05.586Z,1.10
2018-03-19T13:40:08.848Z,1.10
2018-03-19T13:41:12.042Z,1.20
2018-03-19T13:42:15.261Z,1.00
2018-03-19T13:43:19.266Z,1.00
2018-03-19T13:44:23.250Z,1.00